Amaranth, Pennsylvania
Current Conditions -  °F | °C
As of 2:53 AM on Thursday 27 Nov 2014 (Local Time) from KHGR Reporting Station
Overcast Overcast  
Wind Chill: 29°   Ceiling: 7000
Heat Index: 34°   Visibility: 10mi
Dew Point: 30°   Wind: 6mph
Humidity: 85%   Direction: 130°SE
Pressure: 29.99"   Gusts: NA
Location:  39.7745°N, 78.2026°W
Report Text: KHGR 270753Z AUTO 13005KT 10SM OVC070 01/M01 A2999 RMK AO2 SLP173 T00111011 TSNO
Loading
Personal Weather Stations






























Interactive Weather Map New forecast layout! Learn more

10-Day Weather Forecast

Advertisements
Track Severe Weather on mobile